• Join FlightAware (Why Join?)
  • Login
  • US Flag 
 
10:49PM EST


 

Airport Tracker/Info


-or-


 

Live Flight TrackerFlight Track Log ✈ UAL395 ✈ 21-Aug-2013 ✈ KORD - KIAH

Flight Track Log - Related Links

Times and Time Zones

All times are in EDT time to prevent confusion due to time zone crossing. See the UAL395 flight status page for this flight to view local times or setup timezone preferences in your user account.

Time Position Orientation Groundspeed Altitude Reporting Facility
EDT Latitude Longitude Course Direction KTS MPH feet Rate Location/Type
06:21PM 41.9640 -87.8870 222° Southwest 115 132  Level FlightAware
06:22PM 41.9500 -87.9020 219° Southwest 159 183 1,300 3,060 Climbing FlightAware
06:22PM 41.9420 -87.9060 200° South 163 188 1,900 3,180 Climbing FlightAware
06:22PM 41.9270 -87.9120 197° South 163 188 3,000 3,000 Climbing FlightAware
06:22PM 41.9180 -87.9150 194° South 170 196 3,500 1,920 Climbing FlightAware
06:23PM 41.8990 -87.9210 193° South 210 242 4,100 1,800 Climbing FlightAware
06:23PM 41.8790 -87.9290 197° South 238 274 4,800 2,820 Climbing FlightAware
06:23PM 41.8550 -87.9390 197° South 254 292 6,100 3,120 Climbing FlightAware
06:24PM 41.8320 -87.9430 187° South 275 316 6,900 2,820 Climbing FlightAware
06:24PM 41.8110 -87.9470 188° South 286 329 7,700 3,000 Climbing FlightAware
06:24PM 41.7830 -87.9530 189° South 299 344 8,800 3,480 Climbing FlightAware
06:25PM 41.7630 -87.9570 188° South 301 346 9,800 3,540 Climbing FlightAware
06:25PM 41.7130 -87.9680 189° South 317 365 11,700 3,420 Climbing FlightAware
06:26PM 41.6630 -87.9780 188° South 320 368 13,800 2,640 Climbing FlightAware
06:26PM 41.6090 -87.9880 188° South 359 413 14,800 2,040 Climbing FlightAware
06:27PM 41.5500 -88.0010 189° South 383 441 16,200 2,400 Climbing FlightAware
06:27PM 41.4820 -88.0150 189° South 407 468 17,700 2,820 Climbing FlightAware
06:28PM 41.4130 -88.0290 189° South 409 471 19,700 2,100 Climbing FlightAware
06:29PM 41.3510 -88.0450 191° South 446 513 20,100 1,740 Climbing FlightAware
06:29PM 41.2790 -88.0710 195° South 451 519 21,700 2,280 Climbing FlightAware
06:30PM 41.2050 -88.0980 195° South 468 539 22,900 2,100 Climbing FlightAware
06:30PM 41.1310 -88.1190 192° South 475 547 24,200 2,100 Climbing FlightAware
06:31PM 41.0530 -88.1460 195° South 485 558 25,400 1,740 Climbing FlightAware
06:32PM 40.9810 -88.1860 203° Southwest 494 568 26,300 1,560 Climbing FlightAware
06:32PM 40.9160 -88.2310 208° Southwest 503 579 27,200 1,680 Climbing FlightAware
06:33PM 40.8400 -88.2850 208° Southwest 510 587 28,300 2,100 Climbing FlightAware
06:33PM 40.7680 -88.3360 208° Southwest 506 582 29,700 2,400 Climbing FlightAware
06:34PM 40.6900 -88.3900 208° Southwest 502 578 31,200 1,920 Climbing FlightAware
06:34PM 40.6270 -88.4340 208° Southwest 505 581 32,000 720 Climbing FlightAware
06:35PM 40.5560 -88.4830 208° Southwest 517 595 32,000  Level FlightAware
06:36PM 40.4750 -88.5390 208° Southwest 511 588 32,000  Level FlightAware
06:36PM 40.4080 -88.5860 208° Southwest 508 585 32,000  Level FlightAware
06:37PM 40.3130 -88.6500 207° Southwest 505 581 32,000 720 Level FlightAware
06:38PM 40.2440 -88.6980 208° Southwest 500 575 33,000 1,680 Climbing FlightAware
06:38PM 40.1780 -88.7430 208° Southwest 498 573 33,900 780 Climbing FlightAware
06:39PM 40.0970 -88.7970 207° Southwest 506 582 34,000 60 Climbing FlightAware
06:39PM 40.0300 -88.8430 208° Southwest 505 581 34,000  Level FlightAware
06:40PM 39.9510 -88.8960 207° Southwest 501 577 34,000 720 Level FlightAware
06:40PM 39.8850 -88.9410 208° Southwest 496 571 34,900 840 Climbing FlightAware
06:41PM 39.8100 -88.9910 207° Southwest 495 570 35,000 60 Climbing FlightAware
06:42PM 39.7430 -89.0360 207° Southwest 491 565 35,000  Level FlightAware
06:42PM 39.6650 -89.0880 207° Southwest 487 560 35,000  Level FlightAware
06:43PM 39.6010 -89.1310 207° Southwest 483 556 35,000  Level FlightAware
06:43PM 39.5260 -89.1810 207° Southwest 482 555 35,000  Level FlightAware
06:44PM 39.4600 -89.2250 207° Southwest 480 552 35,000  Level FlightAware
06:45PM 39.3940 -89.2690 207° Southwest 481 554 35,000  Level FlightAware
06:45PM 39.3180 -89.3190 207° Southwest 482 555 35,000  Level FlightAware
06:46PM 39.2480 -89.3660 207° Southwest 482 555 35,000  Level FlightAware
06:46PM 39.1840 -89.4080 207° Southwest 482 555 35,000  Level FlightAware
06:47PM 39.1120 -89.4550 207° Southwest 483 556 35,000  Level FlightAware
06:47PM 39.0430 -89.5000 207° Southwest 483 556 35,000  Level FlightAware
06:48PM 38.9720 -89.5470 207° Southwest 482 555 35,000  Level FlightAware
06:49PM 38.8970 -89.5960 207° Southwest 482 555 35,000  Level FlightAware
06:49PM 38.8380 -89.6340 207° Southwest 482 555 35,000  Level FlightAware
06:50PM 38.7650 -89.6810 207° Southwest 482 555 35,000  Level FlightAware
06:50PM 38.7010 -89.7230 207° Southwest 483 556 35,000  Level FlightAware
06:51PM 38.6200 -89.7760 207° Southwest 483 556 35,000  Level FlightAware
06:52PM 38.5540 -89.8180 206° Southwest 482 555 35,000  Level FlightAware
06:52PM 38.4830 -89.8640 207° Southwest 483 556 35,000  Level FlightAware
06:53PM 38.4200 -89.9050 207° Southwest 482 555 35,000  Level FlightAware
06:53PM 38.3340 -89.9600 207° Southwest 482 555 35,000  Level FlightAware
06:54PM 38.2610 -90.0070 207° Southwest 481 554 35,000  Level FlightAware
06:55PM 38.1940 -90.0490 206° Southwest 480 552 35,000  Level FlightAware
06:55PM 38.1230 -90.0950 207° Southwest 479 551 35,000  Level FlightAware
06:56PM 38.0510 -90.1400 206° Southwest 478 550 35,000  Level FlightAware
06:56PM 37.9810 -90.1850 207° Southwest 478 550 35,000  Level FlightAware
06:57PM 37.8970 -90.2370 206° Southwest 477 549 35,000  Level FlightAware
06:58PM 37.8350 -90.2760 206° Southwest 477 549 35,000  Level FlightAware
06:58PM 37.7740 -90.3130 206° Southwest 477 549 35,000  Level FlightAware
06:59PM 37.6790 -90.3750 207° Southwest 474 545 35,000  Level FlightAware
07:00PM 37.6190 -90.4120 206° Southwest 474 545 35,000  Level FlightAware
07:00PM 37.5580 -90.4490 206° Southwest 474 545 35,000  Level FlightAware
07:01PM 37.4960 -90.4870 206° Southwest 474 545 35,000  Level FlightAware
07:01PM 37.4360 -90.5240 206° Southwest 474 545 35,000 900 Level FlightAware
07:02PM 37.3350 -90.5900 207° Southwest 467 537 36,000 840 Climbing FlightAware
07:03PM 37.2600 -90.6370 207° Southwest 468 539 36,000  Level FlightAware
07:03PM 37.1960 -90.6770 206° Southwest 470 541 36,000  Level FlightAware
07:04PM 37.1270 -90.7190 206° Southwest 470 541 36,000  Level FlightAware
07:04PM 37.0540 -90.7640 206° Southwest 470 541 36,000  Level FlightAware
07:05PM 36.9870 -90.8050 206° Southwest 469 540 36,000  Level FlightAware
07:05PM 36.9230 -90.8450 207° Southwest 468 539 36,000  Level FlightAware
07:06PM 36.8480 -90.8910 206° Southwest 466 536 36,000  Level FlightAware
07:07PM 36.7780 -90.9330 206° Southwest 466 536 36,000  Level FlightAware
07:07PM 36.7110 -90.9740 206° Southwest 465 535 36,000  Level FlightAware
07:08PM 36.6470 -91.0140 207° Southwest 466 536 36,000  Level FlightAware
07:08PM 36.5780 -91.0560 206° Southwest 465 535 36,000  Level FlightAware
07:09PM 36.5090 -91.0980 206° Southwest 466 536 36,000  Level FlightAware
07:10PM 36.4410 -91.1390 206° Southwest 464 534 36,000  Level FlightAware
07:10PM 36.3790 -91.1760 206° Southwest 465 535 36,000  Level FlightAware
07:11PM 36.3050 -91.2210 206° Southwest 465 535 36,000  Level FlightAware
07:11PM 36.2360 -91.2630 206° Southwest 466 536 36,000  Level FlightAware
07:12PM 36.1490 -91.3150 206° Southwest 465 535 36,000  Level FlightAware
07:13PM 36.0730 -91.3610 206° Southwest 464 534 36,000  Level FlightAware
07:13PM 36.0100 -91.3980 205° Southwest 464 534 36,000  Level FlightAware
07:14PM 35.9400 -91.4400 206° Southwest 465 535 36,000  Level FlightAware
07:14PM 35.8710 -91.4810 206° Southwest 464 534 36,000  Level FlightAware
07:15PM 35.8130 -91.5160 206° Southwest 465 535 36,000  Level FlightAware
07:16PM 35.7440 -91.5570 206° Southwest 465 535 36,000  Level FlightAware
07:16PM 35.6780 -91.5960 206° Southwest 465 535 36,000  Level FlightAware
07:17PM 35.6130 -91.6330 205° Southwest 465 535 36,000  Level FlightAware
07:17PM 35.5430 -91.6760 207° Southwest 465 535 36,000  Level FlightAware
07:18PM 35.4760 -91.7140 205° Southwest 465 535 36,000  Level FlightAware
07:19PM 35.4200 -91.7460 205° Southwest 465 535 36,000  Level FlightAware
07:19PM 35.3600 -91.7800 205° Southwest 465 535 36,000  Level FlightAware
07:20PM 35.2600 -91.8410 206° Southwest 449 517 36,000  Level FlightAware
07:20PM 35.1860 -91.8850 206° Southwest 445 512 36,000  Level FlightAware
07:21PM 35.1260 -91.9200 206° Southwest 445 512 36,000  Level FlightAware
07:22PM 35.0680 -91.9520 204° Southwest 445 512 36,000  Level FlightAware
07:22PM 35.0110 -91.9850 205° Southwest 445 512 36,000  Level FlightAware
07:23PM 34.9540 -92.0170 205° Southwest 445 512 36,000  Level FlightAware
07:23PM 34.8970 -92.0500 205° Southwest 445 512 36,000  Level FlightAware
07:24PM 34.8350 -92.0850 205° Southwest 445 512 36,000  Level FlightAware
07:25PM 34.7780 -92.1170 205° Southwest 445 512 36,000  Level FlightAware
07:25PM 34.7200 -92.1510 206° Southwest 445 512 36,000  Level FlightAware
07:26PM 34.6620 -92.1830 204° Southwest 445 512 36,000  Level FlightAware
07:27PM 34.6050 -92.2150 205° Southwest 445 512 36,000  Level FlightAware
07:27PM 34.5480 -92.2480 205° Southwest 445 512 36,000  Level FlightAware
07:28PM 34.4880 -92.2820 205° Southwest 445 512 36,000  Level FlightAware
07:28PM 34.4310 -92.3140 205° Southwest 445 512 36,000  Level FlightAware
07:29PM 34.3740 -92.3460 205° Southwest 445 512 36,000  Level FlightAware
07:30PM 34.3170 -92.3790 206° Southwest 445 512 36,000  Level FlightAware
07:30PM 34.2580 -92.4120 205° Southwest 445 512 36,000  Level FlightAware
07:32PM 33.9186 -92.0900 205° Southwest 397 457 36,000  Level Fort Worth Center
07:37PM 33.3670 -92.4250 205° Southwest 425 489 36,000  Level FlightAware
07:37PM 33.2890 -92.4400 189° South 429 494 36,000  Level FlightAware
07:38PM 33.2320 -92.4500 188° South 431 496 36,000  Level FlightAware
07:39PM 33.1490 -92.4650 189° South 436 502 36,000  Level FlightAware
07:39PM 33.1910 -92.4570 North 447 514 36,000  Level FlightAware
07:40PM 33.1250 -92.4700 189° South 447 514 36,000  Level FlightAware
07:41PM 33.0630 -92.4820 189° South 447 514 36,000  Level FlightAware
07:41PM 32.9970 -92.4940 189° South 447 514 36,000  Level FlightAware
07:42PM 32.9340 -92.5060 189° South 447 514 36,000  Level FlightAware
07:42PM 33.1910 -92.4570 North 450 518 36,000  Level FlightAware
07:43PM 32.6350 -92.7070 201° Southwest 450 518 36,000  Level FlightAware
07:44PM 32.5690 -92.7460 206° Southwest 451 519 36,000  Level FlightAware
07:44PM 32.4940 -92.7910 207° Southwest 453 521 36,000  Level FlightAware
07:45PM 32.4300 -92.8280 206° Southwest 452 520 36,000  Level FlightAware
07:46PM 32.3510 -92.8750 207° Southwest 453 521 36,000  Level FlightAware
07:46PM 32.2940 -92.9080 206° Southwest 452 520 36,000  Level FlightAware
07:47PM 32.2330 -92.9440 207° Southwest 452 520 36,000  Level FlightAware
07:47PM 32.1660 -92.9830 206° Southwest 450 518 36,000  Level FlightAware
07:48PM 32.0890 -93.0280 206° Southwest 449 517 36,000  Level FlightAware
07:48PM 32.0360 -93.0590 206° Southwest 448 516 36,000  Level FlightAware
07:49PM 31.9690 -93.0990 207° Southwest 448 516 36,000  Level FlightAware
07:50PM 31.8818 -93.1495 206° Southwest 448 516 36,000  Level FlightAware ADS-B
07:51PM 31.8240 -93.1830 206° Southwest 447 514 36,000  Level FlightAware
07:51PM 31.7390 -93.2325 206° Southwest 449 517 36,000  Level FlightAware ADS-B
07:52PM 31.6824 -93.2653 206° Southwest 448 516 36,000  Level FlightAware ADS-B
07:52PM 31.5925 -93.3199 207° Southwest 444 511 36,000  Level FlightAware ADS-B
07:53PM 31.5450 -93.3716 223° Southwest 431 496 36,000  Level FlightAware ADS-B
07:54PM 31.4928 -93.4319 225° Southwest 425 489 36,000  Level FlightAware ADS-B
07:54PM 31.4500 -93.4812 225° Southwest 418 481 36,000 -120 Level FlightAware ADS-B
07:55PM 31.4144 -93.5382 234° Southwest 417 480 35,900 -540 Descending FlightAware ADS-B
07:55PM 31.4049 -93.5697 251° West 414 476 35,600 -1,200 Descending FlightAware ADS-B
07:55PM 31.4010 -93.5943 259° West 417 480 35,400 -1,380 Descending FlightAware ADS-B
07:55PM 31.4013 -93.6488 270° West 423 487 34,800 -1,440 Descending FlightAware ADS-B
07:56PM 31.4031 -93.6926 273° West 425 489 34,400 -1,380 Descending FlightAware ADS-B
07:56PM 31.4007 -93.7289 266° West 425 489 34,000 -1,860 Descending FlightAware ADS-B
07:57PM 31.3723 -93.8640 250° West 444 511 32,100 -1,680 Descending FlightAware ADS-B
07:57PM 31.3412 -93.9151 235° Southwest 442 509 31,700 -900 Descending FlightAware ADS-B
07:58PM 31.3183 -93.9384 221° Southwest 441 507 31,500 -720 Descending FlightAware ADS-B
07:58PM 31.2993 -93.9528 213° Southwest 441 507 31,400 -840 Descending FlightAware ADS-B
07:58PM 31.2804 -93.9640 207° Southwest 441 507 31,200 -1,560 Descending FlightAware ADS-B
07:58PM 31.2432 -93.9844 205° Southwest 447 514 30,600 -1,440 Descending FlightAware ADS-B
08:00PM 31.0549 -94.0544 197° South 459 528 28,500 -1,200 Descending FlightAware ADS-B
08:01PM 30.8660 -94.1221 197° South 449 517 27,000 -1,560 Descending FlightAware ADS-B
08:04PM 30.5986 -94.2189 197° South 427 491 22,600 -2,340 Descending FlightAware ADS-B
08:05PM 30.4581 -94.2645 186° South 376 433 18,500 -3,000 Descending FlightAware ADS-B
08:06PM 30.3857 -94.2554 172° South 366 421 16,600 -2,700 Descending FlightAware ADS-B
08:06PM 30.3360 -94.2473 172° South 359 413 15,300 -2,580 Descending FlightAware ADS-B
08:07PM 30.3165 -94.2466 182° South 358 412 14,800 -2,100 Descending FlightAware ADS-B
08:07PM 30.2763 -94.2598 204° Southwest 348 400 14,000 -1,800 Descending FlightAware ADS-B
08:07PM 30.2560 -94.2752 213° Southwest 344 396 13,600 -1,500 Descending FlightAware ADS-B
08:07PM 30.2508 -94.2807 222° Southwest 343 395 13,500 -1,500 Descending FlightAware ADS-B
08:07PM 30.2396 -94.2954 229° Southwest 340 391 13,200 -1,680 Descending FlightAware ADS-B
08:08PM 30.2093 -94.3437 237° Southwest 334 384 12,300 -1,680 Descending FlightAware ADS-B
08:08PM 30.2034 -94.3557 240° Southwest 332 382 12,100 -1,620 Descending FlightAware ADS-B
08:08PM 30.1985 -94.3690 247° West 331 381 11,900 -1,320 Descending FlightAware ADS-B
08:08PM 30.1959 -94.3780 252° West 330 380 11,800 -1,740 Descending FlightAware ADS-B
08:09PM 30.1770 -94.4832 259° West 332 382 10,000 -1,020 Descending FlightAware ADS-B
08:10PM 30.1612 -94.5761 258° West 329 379 9,900 -120 Descending FlightAware ADS-B
08:11PM 30.1483 -94.6519 259° West 301 346 9,900 -240 Level FlightAware ADS-B
08:11PM 30.1442 -94.6756 259° West 293 337 9,700 -1,200 Descending FlightAware ADS-B
08:12PM 30.1403 -94.6986 259° West 292 336 9,300 -1,440 Descending FlightAware ADS-B
08:13PM 30.1112 -94.8662 259° West 285 328 6,700 -1,440 Descending FlightAware ADS-B
08:14PM 30.1086 -94.8816 259° West 283 326 6,500 -1,500 Descending FlightAware ADS-B
08:14PM 30.1067 -94.8954 261° West 284 327 6,200 -1,380 Descending FlightAware ADS-B
08:14PM 30.1055 -94.9133 268° West 282 325 6,000 -660 Descending FlightAware ADS-B
08:14PM 30.1052 -94.9373 269° West 284 327 5,900 -240 Descending FlightAware ADS-B
08:14PM 30.1052 -94.9607 270° West 284 327 5,900  Level FlightAware ADS-B
08:15PM 30.1058 -95.0315 271° West 286 329 5,900  Level FlightAware ADS-B
08:15PM 30.1059 -95.0553 270° West 286 329 5,900  Level FlightAware ADS-B
08:16PM 30.1060 -95.0805 270° West 286 329 5,900  Level FlightAware ADS-B
08:17PM 30.1063 -95.1668 270° West 285 328 5,900  Level FlightAware ADS-B
08:17PM 30.1064 -95.2131 270° West 283 326 5,900  Level FlightAware ADS-B
08:17PM 30.1065 -95.2368 270° West 283 326 5,900  Level FlightAware ADS-B
08:18PM 30.1067 -95.3015 270° West 245 282 5,900  Level FlightAware ADS-B
08:18PM 30.1067 -95.3207 270° West 239 275 5,900 -540 Level FlightAware ADS-B
08:20PM 30.1069 -95.4155 270° West 235 270 5,100 -840 Descending FlightAware ADS-B
08:21PM 30.1070 -95.4923 270° West 238 274 4,000 -1,200 Descending FlightAware ADS-B
08:21PM 30.1070 -95.5324 270° West 239 275 3,300 -1,200 Descending FlightAware ADS-B
08:22PM 30.1064 -95.5569 264° West 238 274 3,000 -1,140 Descending FlightAware ADS-B
08:22PM 30.1055 -95.5612 256° West 238 274 2,900 -720 Descending FlightAware ADS-B
08:22PM 30.1033 -95.5674 248° West 237 273 2,900  Level FlightAware ADS-B
08:22PM 30.1013 -95.5712 239° Southwest 237 273 2,900  Level FlightAware ADS-B
08:22PM 30.0991 -95.5743 231° Southwest 235 270 2,900  Level FlightAware ADS-B
08:22PM 30.0949 -95.5786 222° Southwest 231 266 2,900  Level FlightAware ADS-B
08:22PM 30.0918 -95.5808 212° Southwest 228 262 2,900  Level FlightAware ADS-B
08:22PM 30.0882 -95.5827 205° Southwest 225 259 2,900  Level FlightAware ADS-B
08:22PM 30.0850 -95.5837 195° South 221 254 2,900  Level FlightAware ADS-B
08:22PM 30.0774 -95.5845 185° South 215 247 2,900  Level FlightAware ADS-B
08:22PM 30.0711 -95.5836 173° South 215 247 2,900  Level FlightAware ADS-B
08:23PM 30.0470 -95.5770 166° South 215 247 2,900  Level FlightAware ADS-B
08:23PM 30.0349 -95.5704 155° Southeast 209 241 2,900  Level FlightAware ADS-B
08:23PM 30.0307 -95.5672 147° Southeast 208 239 2,900  Level FlightAware ADS-B
08:23PM 30.0278 -95.5647 143° Southeast 208 239 2,900 720 Level FlightAware ADS-B
08:23PM 30.0250 -95.5618 138° Southeast 208 239 3,000 420 Climbing FlightAware ADS-B
08:23PM 30.0176 -95.5539 135° Southeast 211 243 3,000 -420 Level FlightAware ADS-B
08:23PM 30.0137 -95.5491 133° Southeast 209 241 2,900 -300 Descending FlightAware ADS-B
08:24PM 30.0044 -95.5362 130° Southeast 196 226 2,900  Level FlightAware ADS-B
08:24PM 30.0009 -95.5308 127° Southeast 184 212 2,900  Level FlightAware ADS-B
08:24PM 29.9988 -95.5273 125° Southeast 179 206 2,900  Level FlightAware ADS-B
08:24PM 29.9974 -95.5240 116° Southeast 176 203 2,900  Level FlightAware ADS-B
08:24PM 29.9964 -95.5208 110° East 176 203 2,900 -900 Level FlightAware ADS-B
08:24PM 29.9957 -95.5178 105° East 176 203 2,800 -900 Descending FlightAware ADS-B
08:24PM 29.9949 -95.5137 103° East 175 201 2,800 -780 Level FlightAware ADS-B
08:24PM 29.9944 -95.5101 99° East 175 201 2,700 -900 Descending FlightAware ADS-B
08:24PM 29.9941 -95.5073 97° East 174 200 2,700 -780 Level FlightAware ADS-B
08:24PM 29.9933 -95.4953 94° East 176 203 2,500 -1,080 Descending FlightAware ADS-B
08:25PM 29.9932 -95.4918 92° East 176 203 2,400 -1,380 Descending FlightAware ADS-B
08:25PM 29.9932 -95.4870 90° East 177 204 2,300 -900 Descending FlightAware ADS-B
08:25PM 29.9938 -95.4721 87° East 177 204 2,100 -960 Descending FlightAware ADS-B
08:25PM 29.9943 -95.4637 86° East 173 199 1,900 -1,020 Descending FlightAware ADS-B
08:25PM 29.9944 -95.4550 89° East 166 191 1,800 -1,020 Descending FlightAware ADS-B
08:25PM 29.9944 -95.4524 90° East 162 186 1,700 -840 Descending FlightAware ADS-B
08:26PM 29.9938 -95.4369 93° East 141 162 1,500 -840 Descending FlightAware ADS-B
08:26PM 29.9937 -95.4307 91° East 135 155 1,300 -1,320 Descending FlightAware ADS-B
08:26PM 29.9936 -95.4268 92° East 133 153 1,200 -600 Descending FlightAware ADS-B
08:26PM 29.9934 -95.4159 91° East 131 151 1,100 -600 Descending FlightAware ADS-B
08:26PM 29.9933 -95.4113 91° East 133 153 1,000 -900 Descending FlightAware ADS-B
08:26PM 29.9932 -95.4018 91° East 134 154 800 -600 Descending FlightAware ADS-B
08:27PM 29.9935 -95.3897 88° East 137 158 700 -720 Descending FlightAware ADS-B
08:27PM 29.9935 -95.3828 90° East 136 157 500 -840 Descending FlightAware ADS-B
08:27PM 29.9934 -95.3735 91° East 135 155 400 -660 Descending FlightAware ADS-B
08:27PM 29.9934 -95.3686 90° East 136 157 300 -720 Descending FlightAware ADS-B
08:27PM 29.9935 -95.3611 89° East 137 158 200 -600 Descending FlightAware ADS-B